createdAt,value
2023-03-06T00:02:20.378Z,4.33
2023-03-06T00:04:47.260Z,3.40
2023-03-06T00:07:13.859Z,3.27
2023-03-06T00:09:46.378Z,3.00
2023-03-06T00:12:12.982Z,2.07
2023-03-06T00:14:39.563Z,3.13
2023-03-06T00:17:06.259Z,2.03
2023-03-06T00:19:35.781Z,2.37
2023-03-06T00:22:03.436Z,4.07
2023-03-06T00:24:30.064Z,3.10
2023-03-06T00:26:56.726Z,3.30
2023-03-06T00:29:26.223Z,4.73
2023-03-06T00:31:52.796Z,2.27
2023-03-06T00:34:19.424Z,2.20
2023-03-06T00:36:46.143Z,2.47
2023-03-06T00:39:12.860Z,2.13
2023-03-06T00:41:39.500Z,2.23
2023-03-06T00:44:06.125Z,2.90
2023-03-06T00:46:32.804Z,2.20
2023-03-06T00:48:59.549Z,2.07
2023-03-06T00:51:26.288Z,2.07
2023-03-06T00:53:52.906Z,2.07
2023-03-06T00:56:20.128Z,3.57
2023-03-06T00:58:46.779Z,3.70
2023-03-06T01:01:13.509Z,3.90
2023-03-06T01:03:40.089Z,2.00
2023-03-06T01:06:06.697Z,2.33
2023-03-06T01:08:33.377Z,1.90
2023-03-06T01:11:00.004Z,2.10
2023-03-06T01:13:26.706Z,2.17
2023-03-06T01:15:53.383Z,3.07
2023-03-06T01:18:20.004Z,1.83
2023-03-06T01:20:46.781Z,1.90
2023-03-06T01:23:13.401Z,2.60
2023-03-06T01:25:40.020Z,2.03
2023-03-06T01:28:06.566Z,2.10
2023-03-06T01:30:33.170Z,1.80
2023-03-06T01:32:59.760Z,1.50
2023-03-06T01:35:26.407Z,2.57
2023-03-06T01:37:53.094Z,2.90
2023-03-06T01:40:19.687Z,1.67
2023-03-06T01:42:48.286Z,2.23
2023-03-06T01:45:14.853Z,1.67
2023-03-06T01:47:41.387Z,3.77
2023-03-06T01:50:09.475Z,1.67
2023-03-06T01:52:39.334Z,2.17
2023-03-06T01:55:09.095Z,1.30
2023-03-06T01:57:38.130Z,1.83
2023-03-06T02:00:08.510Z,2.00
2023-03-06T02:02:35.428Z,1.43
2023-03-06T02:05:20.579Z,2.07
2023-03-06T02:07:47.920Z,1.33
2023-03-06T02:10:15.459Z,1.83
2023-03-06T02:12:43.879Z,2.57
2023-03-06T02:15:14.883Z,1.63
2023-03-06T02:17:42.660Z,2.17
2023-03-06T02:20:09.369Z,1.77
2023-03-06T02:22:56.181Z,1.30
2023-03-06T02:25:41.580Z,1.83
2023-03-06T02:28:09.451Z,2.00
2023-03-06T02:30:36.514Z,1.83
2023-03-06T02:33:12.715Z,1.70
2023-03-06T02:35:40.034Z,3.10
2023-03-06T02:38:09.500Z,1.90
2023-03-06T02:40:36.873Z,1.80
2023-03-06T02:43:03.723Z,1.73
2023-03-06T02:45:38.011Z,3.33
2023-03-06T02:48:05.286Z,2.07
2023-03-06T02:50:32.108Z,1.73
2023-03-06T02:52:58.947Z,2.83
2023-03-06T02:55:25.541Z,2.33
2023-03-06T02:57:52.115Z,1.40
2023-03-06T03:00:19.381Z,2.13
2023-03-06T03:02:46.098Z,3.23
2023-03-06T03:05:12.655Z,2.30
2023-03-06T03:07:39.237Z,1.53
2023-03-06T03:10:06.036Z,3.00
2023-03-06T03:12:33.092Z,1.40
2023-03-06T03:14:59.719Z,1.37
2023-03-06T03:21:13.032Z,1.43
2023-03-06T03:23:39.737Z,1.40
2023-03-06T03:26:19.887Z,3.30
2023-03-06T03:28:50.491Z,1.40
2023-03-06T03:31:17.280Z,0.93
2023-03-06T03:33:43.983Z,3.00
2023-03-06T03:36:10.644Z,2.90
2023-03-06T03:38:37.258Z,4.10
2023-03-06T03:41:04.550Z,5.37
2023-03-06T03:43:31.384Z,3.00
2023-03-06T03:45:57.952Z,3.50
2023-03-06T03:48:24.521Z,2.60
2023-03-06T03:50:51.280Z,2.93
2023-03-06T03:53:17.907Z,2.90
2023-03-06T03:55:46.541Z,2.33
2023-03-06T03:58:16.198Z,2.07
2023-03-06T04:00:42.786Z,1.53
2023-03-06T04:03:09.375Z,3.10
2023-03-06T04:05:35.986Z,2.17
2023-03-06T04:08:03.348Z,2.40
2023-03-06T04:10:30.008Z,2.53
2023-03-06T04:12:56.570Z,1.60
2023-03-06T04:15:25.875Z,1.60
2023-03-06T04:17:53.618Z,1.53
2023-03-06T04:20:20.241Z,2.13
2023-03-06T04:22:46.787Z,1.80
2023-03-06T04:25:13.356Z,2.33
2023-03-06T04:27:46.015Z,1.47
2023-03-06T04:30:12.741Z,1.33
2023-03-06T04:32:39.386Z,2.03
2023-03-06T04:35:06.157Z,1.13
2023-03-06T04:37:32.781Z,2.43
2023-03-06T04:39:59.329Z,1.93
2023-03-06T04:42:25.888Z,1.80
2023-03-06T04:44:52.457Z,1.83
2023-03-06T04:47:19.413Z,3.57
2023-03-06T04:49:46.048Z,1.40
2023-03-06T04:52:15.488Z,1.80
2023-03-06T04:54:42.928Z,1.37
2023-03-06T04:57:10.405Z,1.67
2023-03-06T04:59:39.111Z,2.37
2023-03-06T05:02:05.809Z,2.57
2023-03-06T05:04:32.341Z,2.70
2023-03-06T05:07:10.810Z,3.17
2023-03-06T05:09:39.119Z,2.00
2023-03-06T05:12:05.801Z,2.13
2023-03-06T05:14:32.605Z,4.17
2023-03-06T05:17:07.837Z,2.20
2023-03-06T05:19:34.396Z,1.60
2023-03-06T05:22:00.921Z,3.03
2023-03-06T05:24:27.517Z,2.30
2023-03-06T05:26:54.091Z,1.40
2023-03-06T05:29:20.657Z,2.77
2023-03-06T05:31:47.494Z,1.60
2023-03-06T05:34:14.926Z,3.23
2023-03-06T05:36:41.912Z,4.53
2023-03-06T05:39:08.553Z,4.93
2023-03-06T05:41:35.371Z,3.50
2023-03-06T05:44:02.186Z,3.27
2023-03-06T05:46:28.732Z,4.20
2023-03-06T05:48:56.298Z,5.97
2023-03-06T05:51:22.977Z,5.50
2023-03-06T05:53:49.595Z,5.63
2023-03-06T05:56:16.125Z,5.10
2023-03-06T05:58:42.754Z,6.30
2023-03-06T06:01:13.711Z,7.60
2023-03-06T06:03:40.590Z,6.20
2023-03-06T06:06:08.663Z,7.40
2023-03-06T06:08:35.173Z,7.83
2023-03-06T06:11:02.106Z,4.77
2023-03-06T06:13:28.564Z,5.63
2023-03-06T06:23:27.952Z,9.50
2023-03-06T06:25:54.500Z,6.80
2023-03-06T06:28:20.980Z,4.90
2023-03-06T06:30:47.539Z,5.10
2023-03-06T06:33:14.080Z,6.43
2023-03-06T06:35:46.894Z,6.67
2023-03-06T06:38:13.478Z,7.83
2023-03-06T06:40:40.015Z,6.43
2023-03-06T06:50:40.857Z,8.03
2023-03-06T06:53:07.448Z,6.80
2023-03-06T06:55:34.052Z,5.23
2023-03-06T06:58:00.719Z,6.33
2023-03-06T07:00:27.427Z,5.33
2023-03-06T07:02:54.074Z,8.53
2023-03-06T07:05:22.033Z,2.67
2023-03-06T07:07:51.045Z,4.10
2023-03-06T07:10:19.953Z,5.53
2023-03-06T07:12:47.396Z,3.13
2023-03-06T07:15:15.031Z,3.93
2023-03-06T07:17:50.066Z,3.20
2023-03-06T07:20:17.006Z,2.20
2023-03-06T07:22:51.003Z,2.30
2023-03-06T07:25:18.810Z,2.43
2023-03-06T07:27:52.605Z,2.57
2023-03-06T07:30:19.880Z,4.13
2023-03-06T07:32:46.473Z,4.20
2023-03-06T07:35:20.397Z,4.13
2023-03-06T07:37:47.689Z,5.37
2023-03-06T07:40:14.220Z,6.20
2023-03-06T07:42:40.763Z,3.77
2023-03-06T07:45:08.838Z,3.47
2023-03-06T07:47:35.470Z,2.27
2023-03-06T07:50:04.528Z,3.27
2023-03-06T07:52:31.191Z,2.60
2023-03-06T07:54:57.808Z,2.93
2023-03-06T07:57:24.363Z,2.90
2023-03-06T07:59:50.918Z,3.17
2023-03-06T08:02:17.711Z,3.13
2023-03-06T08:04:44.260Z,2.67
2023-03-06T08:07:10.989Z,3.00
2023-03-06T08:09:37.594Z,2.80
2023-03-06T08:12:04.165Z,5.07
2023-03-06T08:14:30.835Z,5.73
2023-03-06T08:16:57.413Z,8.13
2023-03-06T08:19:23.916Z,2.17
2023-03-06T08:21:50.511Z,2.43
2023-03-06T08:24:18.720Z,4.90
2023-03-06T08:26:45.741Z,1.83
2023-03-06T08:29:12.797Z,3.77
2023-03-06T08:31:40.867Z,1.90
2023-03-06T08:34:09.086Z,3.37
2023-03-06T08:36:35.804Z,2.63
2023-03-06T08:39:02.970Z,2.83
2023-03-06T08:41:29.884Z,4.73
2023-03-06T08:43:56.561Z,4.17
2023-03-06T08:46:23.894Z,8.40
2023-03-06T08:48:50.523Z,2.43
2023-03-06T08:51:17.757Z,2.93
2023-03-06T08:53:44.642Z,2.93
2023-03-06T08:56:18.844Z,3.43
2023-03-06T08:58:45.454Z,2.07
2023-03-06T09:01:25.368Z,4.80
2023-03-06T09:03:54.193Z,2.93
2023-03-06T09:06:21.011Z,4.30
2023-03-06T09:08:47.661Z,5.60
2023-03-06T09:11:15.146Z,3.10
2023-03-06T09:13:42.282Z,4.93
2023-03-06T09:16:09.738Z,2.40
2023-03-06T09:18:36.514Z,2.93
2023-03-06T09:21:04.162Z,2.93
2023-03-06T09:23:30.966Z,5.23
2023-03-06T09:26:00.554Z,4.73
2023-03-06T09:28:27.478Z,4.37
2023-03-06T09:30:54.372Z,8.00
2023-03-06T09:33:21.064Z,3.93
2023-03-06T09:35:52.573Z,7.67
2023-03-06T09:38:20.046Z,2.87
2023-03-06T09:40:52.396Z,2.50
2023-03-06T09:43:22.114Z,5.40
2023-03-06T09:45:48.831Z,3.60
2023-03-06T09:48:25.992Z,1.60
2023-03-06T09:50:59.757Z,2.70
2023-03-06T09:53:32.105Z,3.50
2023-03-06T09:56:01.888Z,6.67
2023-03-06T09:58:30.048Z,2.53
2023-03-06T10:01:11.718Z,3.17
2023-03-06T10:03:38.238Z,2.40
2023-03-06T10:06:16.680Z,1.97
2023-03-06T10:08:43.199Z,4.07
2023-03-06T10:11:10.670Z,1.97
2023-03-06T10:13:43.389Z,3.27
2023-03-06T10:16:27.965Z,3.57
2023-03-06T10:18:56.657Z,2.20
2023-03-06T10:21:23.292Z,2.87
2023-03-06T10:24:16.380Z,2.53
2023-03-06T10:26:48.276Z,2.53
2023-03-06T10:29:56.369Z,1.87
2023-03-06T10:32:48.647Z,3.17
2023-03-06T10:35:18.495Z,3.53
2023-03-06T10:37:45.284Z,4.30
2023-03-06T10:40:22.931Z,1.63
2023-03-06T10:42:56.065Z,1.23
2023-03-06T10:45:29.944Z,2.17
2023-03-06T10:48:10.677Z,3.87
2023-03-06T10:50:37.315Z,1.90
2023-03-06T10:53:05.672Z,2.50
2023-03-06T10:55:33.992Z,2.00
2023-03-06T10:58:32.974Z,2.73
2023-03-06T11:01:19.251Z,3.20
2023-03-06T11:03:46.167Z,4.10
2023-03-06T11:06:14.153Z,1.90
2023-03-06T11:08:41.621Z,2.53
2023-03-06T11:11:13.005Z,2.30
2023-03-06T11:13:40.791Z,2.20
2023-03-06T11:16:16.717Z,1.77
2023-03-06T11:18:54.452Z,2.63
2023-03-06T11:21:25.617Z,1.77
2023-03-06T11:23:52.328Z,5.30
2023-03-06T11:26:20.191Z,2.80
2023-03-06T11:28:49.748Z,3.80
2023-03-06T11:31:16.233Z,3.03
2023-03-06T11:33:47.569Z,9.17
2023-03-06T11:36:17.231Z,2.43
2023-03-06T11:38:43.716Z,1.97
2023-03-06T11:41:24.077Z,2.07
2023-03-06T11:44:11.207Z,6.37
2023-03-06T11:46:38.705Z,1.83
2023-03-06T11:49:13.670Z,1.50
2023-03-06T11:51:47.878Z,4.40
2023-03-06T11:54:14.407Z,1.87
2023-03-06T11:56:46.997Z,2.57
2023-03-06T11:59:26.143Z,2.67
2023-03-06T12:02:26.762Z,3.00
2023-03-06T12:05:01.260Z,3.50
2023-03-06T12:07:27.861Z,3.17
2023-03-06T12:09:54.356Z,2.90
2023-03-06T12:12:31.992Z,3.43
2023-03-06T12:15:10.911Z,3.37
2023-03-06T12:17:46.540Z,4.43
2023-03-06T12:20:22.198Z,3.97
2023-03-06T12:23:02.549Z,1.93
2023-03-06T12:25:33.447Z,4.07
2023-03-06T12:28:19.291Z,5.53
2023-03-06T12:31:15.857Z,6.07
2023-03-06T12:33:51.584Z,3.67
2023-03-06T12:36:37.362Z,6.70
2023-03-06T12:39:17.731Z,2.23
2023-03-06T12:41:52.268Z,1.83
2023-03-06T12:44:37.134Z,4.07
2023-03-06T12:50:44.680Z,3.80
2023-03-06T12:53:27.465Z,8.50
2023-03-06T12:55:54.323Z,4.70
2023-03-06T12:58:32.843Z,2.77
2023-03-06T13:01:04.216Z,5.70
2023-03-06T13:03:49.139Z,9.20
2023-03-06T13:06:50.204Z,4.27
2023-03-06T13:09:22.577Z,26.53
2023-03-06T13:12:15.164Z,2.63
2023-03-06T13:14:48.755Z,3.10
2023-03-06T13:17:20.491Z,2.20
2023-03-06T13:19:47.910Z,1.77
2023-03-06T13:22:15.932Z,3.70
2023-03-06T13:24:44.046Z,13.33
2023-03-06T13:27:11.959Z,2.67
2023-03-06T13:29:38.464Z,3.40
2023-03-06T13:32:09.261Z,3.07
2023-03-06T13:34:39.518Z,5.67
2023-03-06T13:41:17.631Z,5.13
2023-03-06T13:43:45.457Z,8.07
2023-03-06T13:46:24.869Z,4.33
2023-03-06T13:49:17.807Z,4.00
2023-03-06T13:52:11.589Z,2.70
2023-03-06T13:54:47.984Z,4.20
2023-03-06T13:57:34.312Z,6.23
2023-03-06T14:00:09.840Z,3.97
2023-03-06T14:02:56.037Z,5.53
2023-03-06T14:05:23.039Z,2.93
2023-03-06T14:08:02.629Z,3.93
2023-03-06T14:10:31.278Z,4.40
2023-03-06T14:12:57.775Z,1.97
2023-03-06T14:15:46.285Z,3.57
2023-03-06T14:18:13.282Z,16.40
2023-03-06T14:20:39.950Z,18.00
2023-03-06T14:23:21.234Z,6.83
2023-03-06T14:25:51.486Z,6.47
2023-03-06T14:28:21.958Z,2.00
2023-03-06T14:30:52.612Z,1.10
2023-03-06T14:33:28.407Z,3.03
2023-03-06T14:35:56.711Z,2.53
2023-03-06T14:39:08.529Z,2.20
2023-03-06T14:41:35.605Z,1.07
2023-03-06T14:44:20.126Z,2.03
2023-03-06T14:46:47.874Z,3.23
2023-03-06T14:49:15.442Z,6.80
2023-03-06T14:51:43.629Z,6.93
2023-03-06T14:54:14.295Z,4.70
2023-03-06T14:56:43.039Z,2.90
2023-03-06T14:59:11.786Z,2.00
2023-03-06T15:01:42.199Z,3.97
2023-03-06T15:04:29.031Z,2.80
2023-03-06T15:06:56.421Z,3.30
2023-03-06T15:09:24.416Z,3.60
2023-03-06T15:12:09.875Z,2.97
2023-03-06T15:14:36.437Z,3.50
2023-03-06T15:17:23.349Z,2.07
2023-03-06T15:19:54.695Z,3.73
2023-03-06T15:22:27.142Z,2.17
2023-03-06T15:24:54.396Z,2.20
2023-03-06T15:27:26.896Z,2.17
2023-03-06T15:29:53.858Z,3.07
2023-03-06T15:32:31.255Z,2.13
2023-03-06T15:35:25.527Z,2.53
2023-03-06T15:37:54.132Z,4.40
2023-03-06T15:40:22.375Z,4.47
2023-03-06T15:42:52.108Z,3.20
2023-03-06T15:45:19.964Z,2.70
2023-03-06T15:47:48.205Z,3.30
2023-03-06T15:50:20.317Z,3.27
2023-03-06T15:52:49.889Z,2.70
2023-03-06T15:55:17.825Z,2.60
2023-03-06T15:57:55.692Z,3.60
2023-03-06T16:00:28.202Z,3.27
2023-03-06T16:02:58.533Z,4.03
2023-03-06T16:05:31.794Z,2.60
2023-03-06T16:08:16.373Z,2.57
2023-03-06T16:10:44.726Z,2.33
2023-03-06T16:13:13.273Z,1.97
2023-03-06T16:15:40.998Z,2.67
2023-03-06T16:18:10.368Z,2.60
2023-03-06T16:20:36.910Z,6.80
2023-03-06T16:23:07.981Z,11.07
2023-03-06T16:25:37.578Z,9.73
2023-03-06T16:28:05.020Z,7.70
2023-03-06T16:30:33.325Z,6.00
2023-03-06T16:33:18.163Z,6.27
2023-03-06T16:35:46.782Z,5.20
2023-03-06T16:38:13.565Z,7.97
2023-03-06T16:40:41.560Z,7.03
2023-03-06T16:43:09.147Z,7.17
2023-03-06T16:45:39.360Z,9.33
2023-03-06T16:48:06.322Z,8.60
2023-03-06T16:50:36.387Z,10.87
2023-03-06T16:53:03.519Z,26.30
2023-03-06T16:55:30.300Z,22.47
2023-03-06T16:58:33.442Z,19.90
2023-03-06T17:01:00.483Z,22.23
2023-03-06T17:03:27.031Z,21.50
2023-03-06T17:05:53.641Z,17.87
2023-03-06T17:08:20.130Z,17.50
2023-03-06T17:10:47.474Z,19.10
2023-03-06T17:13:15.040Z,16.53
2023-03-06T17:15:41.588Z,27.07
2023-03-06T17:18:08.186Z,26.63
2023-03-06T17:20:34.757Z,33.83
2023-03-06T17:23:01.292Z,35.27
2023-03-06T17:25:27.810Z,32.07
2023-03-06T17:27:54.390Z,49.00
2023-03-06T17:30:20.984Z,37.37
2023-03-06T17:32:47.479Z,37.87
2023-03-06T17:35:14.069Z,46.20
2023-03-06T17:41:24.694Z,38.20
2023-03-06T17:43:51.842Z,36.13
2023-03-06T17:46:18.813Z,34.97
2023-03-06T17:48:45.470Z,42.60
2023-03-06T17:51:12.577Z,29.13
2023-03-06T17:53:39.468Z,24.63
2023-03-06T17:56:07.342Z,39.53
2023-03-06T17:58:33.942Z,38.53
2023-03-06T18:01:01.057Z,20.37
2023-03-06T18:03:29.671Z,9.43
2023-03-06T18:06:00.191Z,5.70
2023-03-06T18:08:26.690Z,7.43
2023-03-06T18:10:58.638Z,4.87
2023-03-06T18:13:25.174Z,6.70
2023-03-06T18:15:51.850Z,3.67
2023-03-06T18:18:18.428Z,5.73
2023-03-06T18:20:47.123Z,37.50
2023-03-06T18:23:16.649Z,5.80
2023-03-06T18:25:43.222Z,5.87
2023-03-06T18:28:10.021Z,8.53
2023-03-06T18:30:41.330Z,6.10
2023-03-06T18:33:08.894Z,4.47
2023-03-06T18:40:06.536Z,5.23
2023-03-06T18:42:33.224Z,7.33
2023-03-06T18:44:59.724Z,9.73
2023-03-06T18:47:26.254Z,11.53
2023-03-06T18:49:52.770Z,9.97
2023-03-06T18:52:19.575Z,11.70
2023-03-06T18:54:48.542Z,8.73
2023-03-06T18:57:30.619Z,10.17
2023-03-06T18:59:57.190Z,12.33
2023-03-06T19:02:23.689Z,12.97
2023-03-06T19:04:50.215Z,17.10
2023-03-06T19:07:16.855Z,29.53
2023-03-06T19:09:44.468Z,49.93
2023-03-06T19:12:11.613Z,18.93
2023-03-06T19:14:38.263Z,15.20
2023-03-06T19:17:04.947Z,13.77
2023-03-06T19:19:31.595Z,27.67
2023-03-06T19:21:58.471Z,20.33
2023-03-06T19:24:25.358Z,20.80
2023-03-06T19:26:59.528Z,20.03
2023-03-06T19:29:26.096Z,17.73
2023-03-06T19:31:52.672Z,17.00
2023-03-06T19:34:21.890Z,9.73
2023-03-06T19:36:49.635Z,8.63
2023-03-06T19:39:16.119Z,14.37
2023-03-06T19:41:42.683Z,17.47
2023-03-06T19:44:09.646Z,19.13
2023-03-06T19:46:36.304Z,35.17
2023-03-06T19:49:03.620Z,43.77
2023-03-06T19:51:33.012Z,22.00
2023-03-06T19:53:59.639Z,22.43
2023-03-06T19:56:27.590Z,18.83
2023-03-06T19:58:54.421Z,14.57
2023-03-06T20:01:22.168Z,11.60
2023-03-06T20:04:02.388Z,9.70
2023-03-06T20:06:31.350Z,13.47
2023-03-06T20:08:58.022Z,20.03
2023-03-06T20:11:29.049Z,19.80
2023-03-06T20:13:56.888Z,18.47
2023-03-06T20:16:23.698Z,17.67
2023-03-06T20:18:58.926Z,21.43
2023-03-06T20:21:25.930Z,25.47
2023-03-06T20:23:53.221Z,12.53
2023-03-06T20:26:20.486Z,18.77
2023-03-06T20:28:46.999Z,22.23
2023-03-06T20:31:18.017Z,29.83
2023-03-06T20:33:45.499Z,25.23
2023-03-06T20:36:13.538Z,20.63
2023-03-06T20:38:40.179Z,18.97
2023-03-06T20:41:08.009Z,19.63
2023-03-06T20:43:34.744Z,32.53
2023-03-06T20:46:02.636Z,18.53
2023-03-06T20:48:29.684Z,18.43
2023-03-06T20:55:10.966Z,13.17
2023-03-06T20:57:37.501Z,13.87
2023-03-06T21:00:07.375Z,11.83
2023-03-06T21:02:33.918Z,12.27
2023-03-06T21:05:00.970Z,14.13
2023-03-06T21:07:34.148Z,17.37
2023-03-06T21:10:00.952Z,19.47
2023-03-06T21:12:27.679Z,16.93
2023-03-06T21:14:54.322Z,17.83
2023-03-06T21:17:20.865Z,16.27
2023-03-06T21:19:50.878Z,15.13
2023-03-06T21:22:17.588Z,15.87
2023-03-06T21:24:44.304Z,37.90
2023-03-06T21:27:11.926Z,56.23
2023-03-06T21:29:41.526Z,40.97
2023-03-06T21:32:08.094Z,17.40
2023-03-06T21:34:34.643Z,11.67
2023-03-06T21:37:01.181Z,9.80
2023-03-06T21:39:27.727Z,11.93
2023-03-06T21:41:54.282Z,12.77
2023-03-06T21:44:24.584Z,13.23
2023-03-06T21:46:51.064Z,10.40
2023-03-06T21:49:18.253Z,9.27
2023-03-06T21:51:44.864Z,10.80
2023-03-06T21:54:14.094Z,25.30
2023-03-06T21:56:59.255Z,26.23
2023-03-06T21:59:25.769Z,32.77
2023-03-06T22:01:52.299Z,37.63
2023-03-06T22:04:24.937Z,42.33
2023-03-06T22:06:51.466Z,38.60
2023-03-06T22:09:19.947Z,21.13
2023-03-06T22:11:46.570Z,12.87
2023-03-06T22:14:14.807Z,10.57
2023-03-06T22:16:41.399Z,9.33
2023-03-06T22:19:07.964Z,11.27
2023-03-06T22:21:34.518Z,22.47
2023-03-06T22:24:01.058Z,38.40
2023-03-06T22:26:28.325Z,20.23
2023-03-06T22:28:55.444Z,15.37
2023-03-06T22:31:24.123Z,16.20
2023-03-06T22:33:54.362Z,11.93
2023-03-06T22:36:22.215Z,9.20
2023-03-06T22:38:49.111Z,9.10
2023-03-06T22:41:17.070Z,15.43
2023-03-06T22:43:43.701Z,21.17
2023-03-06T22:46:14.636Z,22.23
2023-03-06T22:48:41.868Z,27.27
2023-03-06T22:51:12.680Z,26.13
2023-03-06T22:53:39.204Z,26.43
2023-03-06T22:56:07.770Z,23.93
2023-03-06T22:58:36.989Z,24.30
2023-03-06T23:01:04.939Z,24.13
2023-03-06T23:03:51.445Z,22.63
2023-03-06T23:06:22.542Z,24.23
2023-03-06T23:08:50.142Z,24.10
2023-03-06T23:11:17.753Z,24.33
2023-03-06T23:13:44.562Z,25.47
2023-03-06T23:16:11.254Z,24.40
2023-03-06T23:18:38.282Z,28.30
2023-03-06T23:21:08.861Z,25.37
2023-03-06T23:23:35.916Z,23.93
2023-03-06T23:26:02.466Z,27.17
2023-03-06T23:28:29.159Z,24.93
2023-03-06T23:30:55.659Z,25.80
2023-03-06T23:33:22.542Z,38.97
2023-03-06T23:35:49.158Z,71.13
2023-03-06T23:38:15.676Z,52.77
2023-03-06T23:40:42.206Z,44.30
2023-03-06T23:43:08.749Z,35.40
2023-03-06T23:45:35.276Z,37.50
2023-03-06T23:48:01.798Z,37.03
2023-03-06T23:50:28.289Z,30.43
2023-03-06T23:52:55.271Z,19.27
2023-03-06T23:55:21.888Z,22.57
2023-03-06T23:57:48.401Z,23.13
